Observation data for Ralls on 02/14/2020      Previous  Date  Next       Current Mesonet Observations  Soil Data  Daily Summary Page  Observations in Plain Language
KRLS 140600Z 11012KT M04/M07 A3029 RMK A01 T10351069  RH  078%=      5-min Rain = 0
KRLS 140605Z 10011KT M04/M07 A3029 RMK A01 T10361069  RH  078%=      5-min Rain = 0
KRLS 140610Z 10011KT M04/M07 A303 RMK A01 T10371069  RH  079%=      5-min Rain = 0
KRLS 140615Z 10012KT M04/M07 A303 RMK A01 T10381070  RH  078%=      5-min Rain = 0
KRLS 140620Z 10010KT M04/M07 A303 RMK A01 T10391070  RH  079%=      5-min Rain = 0
KRLS 140625Z 10010KT M04/M07 A303 RMK A01 T10401070  RH  079%=      5-min Rain = 0
KRLS 140630Z 10009KT M04/M07 A303 RMK A01 T10401070  RH  080%=      5-min Rain = 0
KRLS 140635Z 10009KT M04/M07 A303 RMK A01 T10411070  RH  080%=      5-min Rain = 0
KRLS 140640Z 10009KT M04/M07 A303 RMK A01 T10411071  RH  080%=      5-min Rain = 0
KRLS 140645Z 10009KT M04/M07 A303 RMK A01 T10421072  RH  080%=      5-min Rain = 0
KRLS 140650Z 10010KT M04/M07 A303 RMK A01 T10421073  RH  079%=      5-min Rain = 0
KRLS 140655Z 11010KT M04/M07 A303 RMK A01 T10431074  RH  079%=      5-min Rain = 0
KRLS 140700Z 10010KT M04/M07 A303 RMK A01 T10431074  RH  079%=      5-min Rain = 0
KRLS 140705Z 10010KT M04/M08 A303 RMK A01 T10441075  RH  079%=      5-min Rain = 0
KRLS 140710Z 11010KT M05/M08 A303 RMK A01 T10451076  RH  079%=      5-min Rain = 0
KRLS 140715Z 10010KT M05/M08 A303 RMK A01 T10451076  RH  079%=      5-min Rain = 0
KRLS 140720Z 11009KT M05/M08 A303 RMK A01 T10461076  RH  080%=      5-min Rain = 0
KRLS 140725Z 10009KT M05/M08 A303 RMK A01 T10471076  RH  080%=      5-min Rain = 0
KRLS 140730Z 10009KT M05/M08 A303 RMK A01 T10471076  RH  080%=      5-min Rain = 0
KRLS 140735Z 10009KT M05/M08 A303 RMK A01 T10481077  RH  080%=      5-min Rain = 0
KRLS 140740Z 10009KT M05/M08 A303 RMK A01 T10481077  RH  080%=      5-min Rain = 0
KRLS 140745Z 11008KT M05/M08 A303 RMK A01 T10491078  RH  080%=      5-min Rain = 0
KRLS 140750Z 11008KT M05/M08 A3031 RMK A01 T10491078  RH  080%=      5-min Rain = 0
KRLS 140755Z 11008KT M05/M08 A3031 RMK A01 T10501078  RH  081%=      5-min Rain = 0
KRLS 140800Z 11010KT M05/M08 A3031 RMK A01 T10501079  RH  080%=      5-min Rain = 0
KRLS 140805Z 11009KT M05/M08 A3031 RMK A01 T10511080  RH  080%=      5-min Rain = 0
KRLS 140810Z 11009KT M05/M08 A3031 RMK A01 T10511080  RH  080%=      5-min Rain = 0
KRLS 140815Z 11008KT M05/M08 A3031 RMK A01 T10511080  RH  080%=      5-min Rain = 0
KRLS 140820Z 11008KT M05/M08 A3031 RMK A01 T10521081  RH  080%=      5-min Rain = 0
KRLS 140825Z 10008KT M05/M08 A3031 RMK A01 T10521082  RH  080%=      5-min Rain = 0
KRLS 140830Z 10008KT M05/M08 A3031 RMK A01 T10531082  RH  080%=      5-min Rain = 0
KRLS 140835Z 11009KT M05/M08 A3031 RMK A01 T10531083  RH  079%=      5-min Rain = 0
KRLS 140840Z 11008KT M05/M08 A3031 RMK A01 T10541084  RH  079%=      5-min Rain = 0
KRLS 140845Z 11007KT M05/M08 A3031 RMK A01 T10541084  RH  080%=      5-min Rain = 0
KRLS 140850Z 11007KT M06/M08 A3031 RMK A01 T10551084  RH  080%=      5-min Rain = 0
KRLS 140855Z 11007KT M06/M09 A3031 RMK A01 T10551085  RH  079%=      5-min Rain = 0
KRLS 140900Z 10005KT M06/M08 A3031 RMK A01 T10561084  RH  080%=      5-min Rain = 0
KRLS 140905Z 11006KT M06/M09 A3031 RMK A01 T10561085  RH  080%=      5-min Rain = 0
KRLS 140910Z 11006KT M06/M09 A3031 RMK A01 T10571085  RH  080%=      5-min Rain = 0
KRLS 140915Z 10006KT M06/M09 A3031 RMK A01 T10571086  RH  080%=      5-min Rain = 0
KRLS 140920Z 10006KT M06/M09 A3031 RMK A01 T10581086  RH  080%=      5-min Rain = 0
KRLS 140925Z 10006KT M06/M09 A3031 RMK A01 T10581087  RH  080%=      5-min Rain = 0
KRLS 140930Z 09005KT M06/M09 A3031 RMK A01 T10581087  RH  080%=      5-min Rain = 0
KRLS 140935Z 09006KT M06/M09 A3031 RMK A01 T10591088  RH  080%=      5-min Rain = 0
KRLS 140940Z 09005KT M06/M09 A3031 RMK A01 T10601088  RH  080%=      5-min Rain = 0
KRLS 140945Z 10005KT M06/M09 A3031 RMK A01 T10601088  RH  081%=      5-min Rain = 0
KRLS 140950Z 10005KT M06/M09 A3031 RMK A01 T10591088  RH  080%=      5-min Rain = 0
KRLS 140955Z 09005KT M06/M09 A3031 RMK A01 T10601089  RH  080%=      5-min Rain = 0
KRLS 141000Z 10005KT M06/M09 A3031 RMK A01 T10611090  RH  080%=      5-min Rain = 0
KRLS 141005Z 11005KT M06/M09 A3031 RMK A01 T10611089  RH  080%=      5-min Rain = 0
KRLS 141010Z 11005KT M06/M09 A3031 RMK A01 T10611089  RH  080%=      5-min Rain = 0
KRLS 141015Z 11005KT M06/M09 A3031 RMK A01 T10611090  RH  080%=      5-min Rain = 0
KRLS 141020Z 10005KT M06/M09 A3031 RMK A01 T10611090  RH  080%=      5-min Rain = 0
KRLS 141025Z 10005KT M06/M09 A3031 RMK A01 T10611090  RH  080%=      5-min Rain = 0
KRLS 141030Z 09005KT M06/M09 A3031 RMK A01 T10621091  RH  080%=      5-min Rain = 0
KRLS 141035Z 10004KT M06/M09 A3031 RMK A01 T10631091  RH  081%=      5-min Rain = 0
KRLS 141040Z 10005KT M06/M09 A3031 RMK A01 T10621090  RH  080%=      5-min Rain = 0
KRLS 141045Z 10005KT M06/M09 A3032 RMK A01 T10611090  RH  080%=      5-min Rain = 0
KRLS 141050Z 10006KT M06/M09 A3032 RMK A01 T10611091  RH  079%=      5-min Rain = 0
KRLS 141055Z 10005KT M06/M09 A3032 RMK A01 T10621092  RH  079%=      5-min Rain = 0
KRLS 141100Z 10005KT M06/M09 A3032 RMK A01 T10621092  RH  079%=      5-min Rain = 0
KRLS 141105Z 10005KT M06/M09 A3032 RMK A01 T10621092  RH  079%=      5-min Rain = 0
KRLS 141110Z 10005KT M06/M09 A3031 RMK A01 T10631093  RH  079%=      5-min Rain = 0
KRLS 141115Z 10005KT M06/M09 A3031 RMK A01 T10631093  RH  079%=      5-min Rain = 0
KRLS 141120Z 09005KT M06/M09 A3032 RMK A01 T10641093  RH  079%=      5-min Rain = 0
KRLS 141125Z 09004KT M07/M09 A3032 RMK A01 T10651094  RH  080%=      5-min Rain = 0
KRLS 141130Z 09004KT M07/M09 A3032 RMK A01 T10651094  RH  080%=      5-min Rain = 0
KRLS 141135Z 10004KT M07/M09 A3032 RMK A01 T10651094  RH  080%=      5-min Rain = 0
KRLS 141140Z 10004KT M07/M09 A3031 RMK A01 T10651094  RH  080%=      5-min Rain = 0
KRLS 141145Z 10005KT M07/M09 A3031 RMK A01 T10651094  RH  080%=      5-min Rain = 0
KRLS 141150Z 10004KT M07/M09 A3031 RMK A01 T10651094  RH  080%=      5-min Rain = 0
KRLS 141155Z 10004KT M06/M09 A3031 RMK A01 T10641093  RH  080%=      5-min Rain = 0
KRLS 141200Z 10003KT M06/M09 A3031 RMK A01 T10641093  RH  080%=      5-min Rain = 0
KRLS 141205Z 11003KT M06/M09 A3031 RMK A01 T10641092  RH  080%=      5-min Rain = 0
KRLS 141210Z 11004KT M06/M09 A3031 RMK A01 T10631092  RH  080%=      5-min Rain = 0
KRLS 141215Z 11004KT M06/M09 A3031 RMK A01 T10611091  RH  079%=      5-min Rain = 0
KRLS 141220Z 10004KT M06/M09 A3031 RMK A01 T10601092  RH  078%=      5-min Rain = 0
KRLS 141225Z 10005KT M06/M09 A3031 RMK A01 T10591092  RH  077%=      5-min Rain = 0
KRLS 141230Z 11005KT M06/M09 A3031 RMK A01 T10591093  RH  077%=      5-min Rain = 0
KRLS 141235Z 11005KT M06/M09 A3031 RMK A01 T10571090  RH  077%=      5-min Rain = 0
KRLS 141240Z 12006KT M06/M09 A3031 RMK A01 T10561091  RH  076%=      5-min Rain = 0
KRLS 141245Z 12007KT M06/M09 A3032 RMK A01 T10561094  RH  075%=      5-min Rain = 0
KRLS 141250Z 12007KT M06/M10 A3032 RMK A01 T10561095  RH  074%=      5-min Rain = 0
KRLS 141255Z 12006KT M06/M09 A3032 RMK A01 T10561094  RH  074%=      5-min Rain = 0
KRLS 141300Z 12006KT M06/M10 A3032 RMK A01 T10561095  RH  074%=      5-min Rain = 0
KRLS 141305Z 13006KT M06/M10 A3032 RMK A01 T10561095  RH  074%=      5-min Rain = 0
KRLS 141310Z 13006KT M06/M10 A3032 RMK A01 T10561096  RH  073%=      5-min Rain = 0
KRLS 141315Z 14007KT M06/M10 A3032 RMK A01 T10561096  RH  074%=      5-min Rain = 0
KRLS 141320Z 13006KT M06/M10 A3032 RMK A01 T10561096  RH  073%=      5-min Rain = 0
KRLS 141325Z 14007KT M06/M10 A3032 RMK A01 T10561095  RH  074%=      5-min Rain = 0
KRLS 141330Z 13007KT M06/M10 A3033 RMK A01 T10571097  RH  073%=      5-min Rain = 0
KRLS 141335Z 13007KT M06/M10 A3033 RMK A01 T10571096  RH  073%=      5-min Rain = 0
KRLS 141340Z 14007KT M06/M10 A3033 RMK A01 T10561096  RH  073%=      5-min Rain = 0
KRLS 141345Z 14006KT M06/M09 A3033 RMK A01 T10551094  RH  074%=      5-min Rain = 0
KRLS 141350Z 14006KT M06/M09 A3033 RMK A01 T10551094  RH  074%=      5-min Rain = 0
KRLS 141355Z 14008KT M06/M10 A3033 RMK A01 T10551096  RH  073%=      5-min Rain = 0
KRLS 141400Z 14007KT M05/M10 A3033 RMK A01 T10541095  RH  073%=      5-min Rain = 0
KRLS 141405Z 15007KT M05/M10 A3034 RMK A01 T10541095  RH  073%=      5-min Rain = 0
KRLS 141410Z 14008KT M05/M10 A3034 RMK A01 T10541095  RH  072%=      5-min Rain = 0
KRLS 141415Z 14007KT M05/M10 A3033 RMK A01 T10541095  RH  072%=      5-min Rain = 0
KRLS 141420Z 13007KT M05/M09 A3033 RMK A01 T10531094  RH  073%=      5-min Rain = 0
KRLS 141425Z 13007KT M05/M09 A3033 RMK A01 T10511092  RH  073%=      5-min Rain = 0
KRLS 141430Z 13007KT M05/M09 A3033 RMK A01 T10521093  RH  072%=      5-min Rain = 0
KRLS 141435Z 13006KT M05/M09 A3033 RMK A01 T10521093  RH  073%=      5-min Rain = 0
KRLS 141440Z 14007KT M05/M09 A3034 RMK A01 T10511092  RH  073%=      5-min Rain = 0
KRLS 141445Z 14007KT M05/M09 A3034 RMK A01 T10501092  RH  072%=      5-min Rain = 0
KRLS 141450Z 14007KT M05/M09 A3034 RMK A01 T10501091  RH  073%=      5-min Rain = 0
KRLS 141455Z 14007KT M05/M09 A3034 RMK A01 T10481089  RH  073%=      5-min Rain = 0
KRLS 141500Z 14006KT M05/M09 A3034 RMK A01 T10491088  RH  074%=      5-min Rain = 0
KRLS 141505Z 15006KT M05/M09 A3034 RMK A01 T10481086  RH  075%=      5-min Rain = 0
KRLS 141510Z 14005KT M05/M09 A3034 RMK A01 T10471085  RH  075%=      5-min Rain = 0
KRLS 141515Z 15006KT M05/M08 A3035 RMK A01 T10461082  RH  076%=      5-min Rain = 0
KRLS 141520Z 15006KT M04/M08 A3035 RMK A01 T10441080  RH  076%=      5-min Rain = 0
KRLS 141525Z 14008KT M05/M08 A3035 RMK A01 T10451080  RH  076%=      5-min Rain = 0
KRLS 141530Z 15007KT M05/M08 A3035 RMK A01 T10461079  RH  078%=      5-min Rain = 0
KRLS 141535Z 15008KT M04/M08 A3035 RMK A01 T10441076  RH  079%=      5-min Rain = 0
KRLS 141540Z 15008KT M05/M08 A3035 RMK A01 T10451077  RH  078%=      5-min Rain = 0
KRLS 141545Z 14008KT M04/M08 A3034 RMK A01 T10441076  RH  078%=      5-min Rain = 0
KRLS 141550Z 14008KT M04/M08 A3034 RMK A01 T10441075  RH  079%=      5-min Rain = 0
KRLS 141555Z 14008KT M04/M07 A3034 RMK A01 T10421073  RH  079%=      5-min Rain = 0
KRLS 141600Z 14006KT M04/M07 A3034 RMK A01 T10411072  RH  079%=      5-min Rain = 0
KRLS 141605Z 15007KT M04/M07 A3034 RMK A01 T10411072  RH  079%=      5-min Rain = 0
KRLS 141610Z 15007KT M04/M07 A3034 RMK A01 T10391069  RH  080%=      5-min Rain = 0
KRLS 141615Z 15007KT M04/M07 A3034 RMK A01 T10381066  RH  081%=      5-min Rain = 0
KRLS 141620Z 15007KT M04/M06 A3034 RMK A01 T10361064  RH  081%=      5-min Rain = 0
KRLS 141625Z 15007KT M04/M07 A3034 RMK A01 T10361065  RH  080%=      5-min Rain = 0
KRLS 141630Z 16008KT M03/M06 A3033 RMK A01 T10341061  RH  082%=      5-min Rain = 0
KRLS 141635Z 17007KT M03/M06 A3033 RMK A01 T10311057  RH  082%=      5-min Rain = 0
KRLS 141640Z 17008KT M03/M06 A3033 RMK A01 T10301056  RH  082%=      5-min Rain = 0
KRLS 141645Z 17007KT M03/M06 A3033 RMK A01 T10291055  RH  082%=      5-min Rain = 0
KRLS 141650Z 17008KT M03/M05 A3033 RMK A01 T10261053  RH  082%=      5-min Rain = 0
KRLS 141655Z 16009KT M03/M05 A3033 RMK A01 T10271053  RH  083%=      5-min Rain = 0
KRLS 141700Z 16009KT M03/M05 A3033 RMK A01 T10261051  RH  083%=      5-min Rain = 0
KRLS 141705Z 17008G13KT M02/M05 A3033 RMK A01 T10241050  RH  083%=      5-min Rain = 0
KRLS 141710Z 17009KT M02/M05 A3032 RMK A01 T10231049  RH  083%=      5-min Rain = 0
KRLS 141715Z 16010KT M02/M05 A3033 RMK A01 T10231049  RH  083%=      5-min Rain = 0
KRLS 141720Z 17008KT M02/M05 A3033 RMK A01 T10231047  RH  084%=      5-min Rain = 0
KRLS 141725Z 16010KT M02/M05 A3032 RMK A01 T10211047  RH  083%=      5-min Rain = 0
KRLS 141730Z 17009KT M02/M05 A3032 RMK A01 T10221046  RH  084%=      5-min Rain = 0
KRLS 141735Z 17012KT M02/M05 A3032 RMK A01 T10201046  RH  083%=      5-min Rain = 0
KRLS 141740Z 16010KT M02/M04 A3032 RMK A01 T10191044  RH  083%=      5-min Rain = 0
KRLS 141745Z 17011KT M02/M04 A3032 RMK A01 T10191044  RH  083%=      5-min Rain = 0
KRLS 141750Z 17011KT M02/M04 A3032 RMK A01 T10171043  RH  083%=      5-min Rain = 0
KRLS 141755Z 17011KT M02/M04 A3031 RMK A01 T10181043  RH  083%=      5-min Rain = 0
KRLS 141800Z 17010KT M02/M04 A3031 RMK A01 T10171043  RH  083%=      5-min Rain = 0
KRLS 141805Z 17009G14KT M01/M04 A3031 RMK A01 T10141043  RH  081%=      5-min Rain = 0
KRLS 141810Z 16011KT M02/M04 A3031 RMK A01 T10151044  RH  081%=      5-min Rain = 0
KRLS 141815Z 17010KT M02/M04 A303 RMK A01 T10151043  RH  081%=      5-min Rain = 0
KRLS 141820Z 17010KT M01/M04 A303 RMK A01 T10131042  RH  081%=      5-min Rain = 0
KRLS 141825Z 18008KT M01/M04 A303 RMK A01 T10131041  RH  081%=      5-min Rain = 0
KRLS 141830Z 16008KT M01/M04 A3029 RMK A01 T10121041  RH  081%=      5-min Rain = 0
KRLS 141835Z 16009KT M01/M04 A3029 RMK A01 T10111040  RH  081%=      5-min Rain = 0
KRLS 141840Z 17009KT M01/M04 A3029 RMK A01 T10101040  RH  080%=      5-min Rain = 0
KRLS 141845Z 17009KT M01/M04 A3029 RMK A01 T10091039  RH  080%=      5-min Rain = 0
KRLS 141850Z 18012G18KT M01/M04 A3028 RMK A01 T10091040  RH  080%=      5-min Rain = 0
KRLS 141855Z 18010KT M01/M04 A3028 RMK A01 T10081038  RH  081%=      5-min Rain = 0
KRLS 141900Z 18011KT M01/M04 A3028 RMK A01 T10061037  RH  080%=      5-min Rain = 0
KRLS 141905Z 18010KT M01/M04 A3028 RMK A01 T10051036  RH  080%=      5-min Rain = 0
KRLS 141910Z 19011KT M01/M04 A3028 RMK A01 T10061038  RH  080%=      5-min Rain = 0
KRLS 141915Z 20011KT M01/M04 A3028 RMK A01 T10051037  RH  080%=      5-min Rain = 0
KRLS 141920Z 19012KT M01/M04 A3028 RMK A01 T10071038  RH  080%=      5-min Rain = 0
KRLS 141925Z 20012KT M01/M04 A3027 RMK A01 T10061037  RH  080%=      5-min Rain = 0
KRLS 141930Z 19010G15KT M01/M04 A3027 RMK A01 T10051037  RH  080%=      5-min Rain = 0
KRLS 141935Z 19011KT M00/M04 A3027 RMK A01 T10031035  RH  079%=      5-min Rain = 0
KRLS 141940Z 19012KT M01/M04 A3026 RMK A01 T10051037  RH  079%=      5-min Rain = 0
KRLS 141945Z 18010G15KT M00/M04 A3025 RMK A01 T10031036  RH  079%=      5-min Rain = 0
KRLS 141950Z 19011KT M00/M04 A3025 RMK A01 T10031035  RH  079%=      5-min Rain = 0
KRLS 141955Z 19011KT M00/M04 A3025 RMK A01 T10021035  RH  078%=      5-min Rain = 0
KRLS 142000Z 19010G15KT 00/M03 A3025 RMK A01 T00011034  RH  078%=      5-min Rain = 0
KRLS 142005Z 19010G15KT 00/04 A3025 RMK A01 T00-00-35  RH  078%=      5-min Rain = 0
KRLS 142010Z 18011G17KT 00/04 A3025 RMK A01 T00000-35  RH  078%=      5-min Rain = 0
KRLS 142015Z 18011G16KT 00/M03 A3024 RMK A01 T00011034  RH  078%=      5-min Rain = 0
KRLS 142020Z 18012KT 00/M03 A3024 RMK A01 T00011034  RH  078%=      5-min Rain = 0
KRLS 142025Z 19011KT 00/M03 A3024 RMK A01 T00021034  RH  077%=      5-min Rain = 0
KRLS 142030Z 19012KT 00/M03 A3024 RMK A01 T00041032  RH  077%=      5-min Rain = 0
KRLS 142035Z 19011KT 01/M03 A3023 RMK A01 T00051032  RH  077%=      5-min Rain = 0
KRLS 142040Z 20011KT 01/M03 A3023 RMK A01 T00051032  RH  077%=      5-min Rain = 0
KRLS 142045Z 19012G17KT 01/M03 A3023 RMK A01 T00051031  RH  077%=      5-min Rain = 0
KRLS 142050Z 20011KT 01/M03 A3022 RMK A01 T00061031  RH  077%=      5-min Rain = 0
KRLS 142055Z 19010KT 01/M03 A3022 RMK A01 T00081029  RH  077%=      5-min Rain = 0
KRLS 142100Z 20010G15KT 01/M03 A3022 RMK A01 T00081029  RH  076%=      5-min Rain = 0
KRLS 142105Z 19011G16KT 01/M03 A3022 RMK A01 T00091029  RH  076%=      5-min Rain = 0
KRLS 142110Z 18009G15KT 01/M03 A3022 RMK A01 T00101029  RH  076%=      5-min Rain = 0
KRLS 142115Z 18010G15KT 01/M03 A3021 RMK A01 T00101029  RH  076%=      5-min Rain = 0
KRLS 142120Z 18012KT 01/M03 A3021 RMK A01 T00111029  RH  075%=      5-min Rain = 0
KRLS 142125Z 18011G16KT 01/M03 A3021 RMK A01 T00131027  RH  075%=      5-min Rain = 0
KRLS 142130Z 17012KT 01/M03 A3021 RMK A01 T00121028  RH  075%=      5-min Rain = 0
KRLS 142135Z 19010G15KT 01/M03 A3021 RMK A01 T00131026  RH  075%=      5-min Rain = 0
KRLS 142140Z 18011G17KT 01/M03 A3021 RMK A01 T00121026  RH  076%=      5-min Rain = 0
KRLS 142145Z 17012KT 01/M03 A302 RMK A01 T00131026  RH  076%=      5-min Rain = 0
KRLS 142150Z 18012KT 01/M03 A302 RMK A01 T00141026  RH  075%=      5-min Rain = 0
KRLS 142155Z 18010G15KT 01/M02 A302 RMK A01 T00141024  RH  076%=      5-min Rain = 0
KRLS 142200Z 18010G15KT 02/M02 A302 RMK A01 T00151024  RH  076%=      5-min Rain = 0
KRLS 142205Z 18011G16KT 02/M02 A302 RMK A01 T00151023  RH  077%=      5-min Rain = 0
KRLS 142210Z 17011G16KT 02/M02 A302 RMK A01 T00151022  RH  077%=      5-min Rain = 0
KRLS 142215Z 18011G16KT 01/M02 A302 RMK A01 T00141022  RH  077%=      5-min Rain = 0
KRLS 142220Z 18011KT 01/M02 A302 RMK A01 T00121023  RH  078%=      5-min Rain = 0
KRLS 142225Z 18011KT 01/M02 A3019 RMK A01 T00111023  RH  078%=      5-min Rain = 0
KRLS 142230Z 18013KT 01/M02 A3019 RMK A01 T00121022  RH  079%=      5-min Rain = 0
KRLS 142235Z 19011G16KT 01/M02 A3019 RMK A01 T00121021  RH  079%=      5-min Rain = 0
KRLS 142240Z 18012KT 01/M02 A3019 RMK A01 T00131021  RH  079%=      5-min Rain = 0
KRLS 142245Z 18011G16KT 01/M02 A3019 RMK A01 T00121021  RH  079%=      5-min Rain = 0
KRLS 142250Z 18012G17KT 01/M02 A3019 RMK A01 T00121021  RH  079%=      5-min Rain = 0
KRLS 142255Z 17011G16KT 01/M02 A3019 RMK A01 T00131020  RH  080%=      5-min Rain = 0
KRLS 142300Z 17012KT 01/M02 A3019 RMK A01 T00111021  RH  080%=      5-min Rain = 0
KRLS 142305Z 17012G17KT 01/M02 A3018 RMK A01 T00121020  RH  080%=      5-min Rain = 0
KRLS 142310Z 18011KT 01/M02 A3018 RMK A01 T00111020  RH  080%=      5-min Rain = 0
KRLS 142315Z 18011KT 01/M02 A3018 RMK A01 T00121019  RH  080%=      5-min Rain = 0
KRLS 142320Z 18010KT 01/M02 A3018 RMK A01 T00131018  RH  080%=      5-min Rain = 0
KRLS 142325Z 20012KT 02/M02 A3018 RMK A01 T00151018  RH  080%=      5-min Rain = 0
KRLS 142330Z 19011KT 01/M02 A3018 RMK A01 T00121018  RH  081%=      5-min Rain = 0
KRLS 142335Z 19011KT 01/M02 A3018 RMK A01 T00131017  RH  081%=      5-min Rain = 0
KRLS 142340Z 18010KT 01/M02 A3018 RMK A01 T00131017  RH  081%=      5-min Rain = 0
KRLS 142345Z 19011KT 01/M02 A3018 RMK A01 T00141016  RH  081%=      5-min Rain = 0
KRLS 142350Z 19010KT 02/M02 A3018 RMK A01 T00151015  RH  081%=      5-min Rain = 0
KRLS 142355Z 19008KT 02/M01 A3018 RMK A01 T00151014  RH  081%=      5-min Rain = 0
KRLS 150000Z 19009KT 02/M01 A3018 RMK A01 T00161014  RH  081%=      5-min Rain = 0
KRLS 150005Z 19008KT 02/M01 A3018 RMK A01 T00161013  RH  082%=      5-min Rain = 0
KRLS 150010Z 19010KT 02/M01 A3017 RMK A01 T00161013  RH  082%=      5-min Rain = 0
KRLS 150015Z 19009KT 02/M01 A3017 RMK A01 T00161013  RH  082%=      5-min Rain = 0
KRLS 150020Z 19009KT 01/M01 A3017 RMK A01 T00141014  RH  082%=      5-min Rain = 0
KRLS 150025Z 19008KT 01/M02 A3017 RMK A01 T00121015  RH  083%=      5-min Rain = 0
KRLS 150030Z 19007KT 01/M02 A3017 RMK A01 T00091016  RH  084%=      5-min Rain = 0
KRLS 150035Z 20008KT 01/M02 A3017 RMK A01 T00081016  RH  085%=      5-min Rain = 0
KRLS 150040Z 19007KT 01/M02 A3017 RMK A01 T00061017  RH  085%=      5-min Rain = 0
KRLS 150045Z 19006KT 00/M02 A3017 RMK A01 T00031020  RH  085%=      5-min Rain = 0
KRLS 150050Z 18005KT 00/02 A3017 RMK A01 T00-00-22  RH  086%=      5-min Rain = 0
KRLS 150055Z 18005KT M00/M02 A3017 RMK A01 T10011021  RH  087%=      5-min Rain = 0
KRLS 150100Z 20004KT M00/M02 A3016 RMK A01 T10021021  RH  087%=      5-min Rain = 0
KRLS 150105Z 21004KT M01/M03 A3016 RMK A01 T10051025  RH  087%=      5-min Rain = 0
KRLS 150110Z 20004KT M01/M03 A3016 RMK A01 T10081026  RH  088%=      5-min Rain = 0
KRLS 150115Z 19006KT M01/M02 A3016 RMK A01 T10051022  RH  089%=      5-min Rain = 0
KRLS 150120Z 20006KT M01/M02 A3016 RMK A01 T10051022  RH  089%=      5-min Rain = 0
KRLS 150125Z 20005KT M01/M02 A3016 RMK A01 T10081024  RH  089%=      5-min Rain = 0
KRLS 150130Z 20005KT M01/M02 A3016 RMK A01 T10081024  RH  090%=      5-min Rain = 0
KRLS 150135Z 20003KT M01/M02 A3016 RMK A01 T10071023  RH  090%=      5-min Rain = 0
KRLS 150140Z 23002KT M01/M02 A3016 RMK A01 T10061021  RH  090%=      5-min Rain = 0
KRLS 150145Z 24003KT M01/M02 A3016 RMK A01 T10071022  RH  090%=      5-min Rain = 0
KRLS 150150Z 24003KT M01/M03 A3016 RMK A01 T10101025  RH  090%=      5-min Rain = 0
KRLS 150155Z 25003KT M01/M02 A3016 RMK A01 T10101024  RH  091%=      5-min Rain = 0
KRLS 150200Z 25004KT M01/M03 A3016 RMK A01 T10121026  RH  091%=      5-min Rain = 0
KRLS 150205Z 26004KT M01/M03 A3016 RMK A01 T10121025  RH  091%=      5-min Rain = 0
KRLS 150210Z 25003KT M01/M03 A3016 RMK A01 T10121025  RH  091%=      5-min Rain = 0
KRLS 150215Z 24003KT M01/M02 A3016 RMK A01 T10121024  RH  092%=      5-min Rain = 0
KRLS 150220Z 22004KT M01/M02 A3016 RMK A01 T10111023  RH  092%=      5-min Rain = 0
KRLS 150225Z 22004KT M01/M02 A3016 RMK A01 T10111024  RH  092%=      5-min Rain = 0
KRLS 150230Z 22004KT M01/M02 A3016 RMK A01 T10111023  RH  092%=      5-min Rain = 0
KRLS 150235Z 24005KT M01/M03 A3016 RMK A01 T10131025  RH  092%=      5-min Rain = 0
KRLS 150240Z 24007KT M01/M02 A3016 RMK A01 T10111023  RH  092%=      5-min Rain = 0
KRLS 150245Z 23006KT M01/M02 A3016 RMK A01 T10081019  RH  093%=      5-min Rain = 0
KRLS 150250Z 23005KT M01/M03 A3015 RMK A01 T10131026  RH  092%=      5-min Rain = 0
KRLS 150255Z 22005KT M02/M03 A3015 RMK A01 T10161028  RH  092%=      5-min Rain = 0
KRLS 150300Z 22005KT M01/M02 A3015 RMK A01 T10111022  RH  093%=      5-min Rain = 0
KRLS 150305Z 23004KT M01/M02 A3016 RMK A01 T10101022  RH  093%=      5-min Rain = 0
KRLS 150310Z 24004KT M01/M02 A3016 RMK A01 T10091021  RH  093%=      5-min Rain = 0
KRLS 150315Z 25005KT M01/M02 A3016 RMK A01 T10091020  RH  093%=      5-min Rain = 0
KRLS 150320Z 25004KT M01/M02 A3016 RMK A01 T10071018  RH  093%=      5-min Rain = 0
KRLS 150325Z 25004KT M01/M02 A3016 RMK A01 T10071019  RH  092%=      5-min Rain = 0
KRLS 150330Z 23004KT M01/M02 A3016 RMK A01 T10051017  RH  092%=      5-min Rain = 0
KRLS 150335Z 24004KT M01/M02 A3016 RMK A01 T10101023  RH  092%=      5-min Rain = 0
KRLS 150340Z 23004KT M02/M03 A3016 RMK A01 T10151028  RH  091%=      5-min Rain = 0
KRLS 150345Z 23004KT M02/M03 A3016 RMK A01 T10171029  RH  092%=      5-min Rain = 0
KRLS 150350Z 22005KT M02/M03 A3016 RMK A01 T10191031  RH  092%=      5-min Rain = 0
KRLS 150355Z 22005KT M02/M03 A3016 RMK A01 T10181030  RH  093%=      5-min Rain = 0
KRLS 150400Z 21006KT M02/M03 A3015 RMK A01 T10161027  RH  093%=      5-min Rain = 0
KRLS 150405Z 21007KT M01/M02 A3015 RMK A01 T10111021  RH  094%=      5-min Rain = 0
KRLS 150410Z 20007KT M02/M03 A3015 RMK A01 T10161027  RH  093%=      5-min Rain = 0
KRLS 150415Z 20007KT M02/M03 A3015 RMK A01 T10201031  RH  093%=      5-min Rain = 0
KRLS 150420Z 21006KT M02/M04 A3015 RMK A01 T10241035  RH  093%=      5-min Rain = 0
KRLS 150425Z 21005KT M03/M04 A3015 RMK A01 T10251036  RH  093%=      5-min Rain = 0
KRLS 150430Z 21006KT M02/M03 A3015 RMK A01 T10181027  RH  094%=      5-min Rain = 0
KRLS 150435Z 20007KT M02/M03 A3015 RMK A01 T10191030  RH  093%=      5-min Rain = 0
KRLS 150440Z 20008KT M02/M03 A3015 RMK A01 T10211031  RH  093%=      5-min Rain = 0
KRLS 150445Z 19009KT M02/M03 A3014 RMK A01 T10151025  RH  094%=      5-min Rain = 0
KRLS 150450Z 20008KT M01/M02 A3014 RMK A01 T10141023  RH  094%=      5-min Rain = 0
KRLS 150455Z 20007KT M01/M02 A3014 RMK A01 T10121022  RH  094%=      5-min Rain = 0
KRLS 150500Z 19008KT M01/M02 A3014 RMK A01 T10101020  RH  094%=      5-min Rain = 0
KRLS 150505Z 19008KT M01/M02 A3014 RMK A01 T10071017  RH  094%=      5-min Rain = 0
KRLS 150510Z 19009KT M00/M01 A3014 RMK A01 T10021012  RH  094%=      5-min Rain = 0
KRLS 150515Z 19009KT 00/M01 A3013 RMK A01 T00041007  RH  093%=      5-min Rain = 0
KRLS 150520Z 19009KT 01/M01 A3013 RMK A01 T00091005  RH  092%=      5-min Rain = 0
KRLS 150525Z 19010KT 01/M01 A3013 RMK A01 T00111005  RH  090%=      5-min Rain = 0
KRLS 150530Z 19010KT 01/M01 A3013 RMK A01 T00121005  RH  089%=      5-min Rain = 0
KRLS 150535Z 19010KT 01/M01 A3013 RMK A01 T00121006  RH  089%=      5-min Rain = 0
KRLS 150540Z 19010KT 01/M01 A3013 RMK A01 T00111007  RH  089%=      5-min Rain = 0
KRLS 150545Z 19010KT 01/M01 A3013 RMK A01 T00121006  RH  089%=      5-min Rain = 0
KRLS 150550Z 19010KT 01/M01 A3013 RMK A01 T00121006  RH  089%=      5-min Rain = 0
KRLS 150555Z 19010KT 01/M00 A3013 RMK A01 T00141004  RH  089%=      5-min Rain = 0

Page generated in 0.0093 seconds.